Time;durP1;ratioP1;P1;durP2;ratioP2;P2;SDS_P1;SDS_P2;PMS_P1;PMS_P2;Temp;Humidity;BMP_temperature;BMP_pressure;BME280_temperature;BME280_humidity;BME280_pressure;Samples;Min_cycle;Max_cycle;Signal;HPM_P1;HPM_P2
2022/04/29 00:00:34;;;;;;;10.93;4.83;;;;;;;;;;5010787;28;20271;-70
2022/04/29 00:03:00;;;;;;;7.67;4.97;;;;;;;;;;5011334;28;20234;-71
2022/04/29 00:05:25;;;;;;;11.17;5.50;;;;;;;;;;5011532;28;20214;-70
2022/04/29 00:07:51;;;;;;;10.73;5.57;;;;;;;;;;5007161;28;20747;-71
2022/04/29 00:10:16;;;;;;;8.73;5.07;;;;;;;;;;5006323;28;20242;-71
2022/04/29 00:12:43;;;;;;;12.57;5.37;;;;;;;;;;5008084;28;20171;-70
2022/04/29 00:15:09;;;;;;;8.20;4.70;;;;;;;;;;5002067;28;20577;-67
2022/04/29 00:17:34;;;;;;;7.60;5.90;;;;;;;;;;4996602;28;20245;-71
2022/04/29 00:19:59;;;;;;;9.43;5.80;;;;;;;;;;5003616;28;20221;-70
2022/04/29 00:22:24;;;;;;;7.73;5.53;;;;;;;;;;5006597;28;20238;-71
2022/04/29 00:24:49;;;;;;;10.03;5.53;;;;;;;;;;5005275;28;20187;-69
2022/04/29 00:27:14;;;;;;;12.93;6.17;;;;;;;;;;5012601;28;20203;-69
2022/04/29 00:29:40;;;;;;;14.53;6.03;;;;;;;;;;5010655;28;20254;-69
2022/04/29 00:32:05;;;;;;;10.23;5.47;;;;;;;;;;5012629;28;20286;-69
2022/04/29 00:34:30;;;;;;;7.80;5.67;;;;;;;;;;5009387;28;20178;-69
2022/04/29 00:36:55;;;;;;;10.73;5.80;;;;;;;;;;4993876;28;20270;-69
2022/04/29 00:39:23;;;;;;;9.50;5.37;;;;;;;;;;5010103;28;20190;-70
2022/04/29 00:41:48;;;;;;;9.27;5.80;;;;;;;;;;5009090;28;20583;-69
2022/04/29 00:44:13;;;;;;;13.50;6.57;;;;;;;;;;5009980;28;20225;-69
2022/04/29 00:46:40;;;;;;;11.47;5.80;;;;;;;;;;5004233;28;20295;-69
2022/04/29 00:49:06;;;;;;;9.33;6.20;;;;;;;;;;5005660;28;20214;-69
2022/04/29 00:51:32;;;;;;;14.70;5.90;;;;;;;;;;5011359;28;20199;-69
2022/04/29 00:53:57;;;;;;;10.70;6.17;;;;;;;;;;5009738;28;20183;-69
2022/04/29 00:56:23;;;;;;;10.73;6.03;;;;;;;;;;5010014;28;20602;-69
2022/04/29 00:58:52;;;;;;;7.63;5.93;;;;;;;;;;5010857;28;20611;-69
2022/04/29 01:01:20;;;;;;;12.03;5.90;;;;;;;;;;5008203;28;20221;-70
2022/04/29 01:03:46;;;;;;;14.13;6.27;;;;;;;;;;4999056;28;20290;-70
2022/04/29 01:06:11;;;;;;;9.90;6.37;;;;;;;;;;5009891;28;20673;-68
2022/04/29 01:08:36;;;;;;;13.07;6.07;;;;;;;;;;4999727;28;20681;-69
2022/04/29 01:11:01;;;;;;;13.40;6.93;;;;;;;;;;5001576;28;20203;-69
2022/04/29 01:13:27;;;;;;;11.47;5.77;;;;;;;;;;5002826;28;20599;-69
2022/04/29 01:15:55;;;;;;;10.27;6.53;;;;;;;;;;5003156;28;20167;-68
2022/04/29 01:18:20;;;;;;;10.97;6.50;;;;;;;;;;5009574;28;20233;-69
2022/04/29 01:20:45;;;;;;;8.30;6.63;;;;;;;;;;4997515;28;20455;-68
2022/04/29 01:23:11;;;;;;;8.27;5.90;;;;;;;;;;5008700;28;20181;-69
2022/04/29 01:25:37;;;;;;;10.70;6.00;;;;;;;;;;5007187;28;20187;-69
2022/04/29 01:28:03;;;;;;;12.60;6.50;;;;;;;;;;5009900;28;20210;-68
2022/04/29 01:30:28;;;;;;;10.60;6.03;;;;;;;;;;5003466;28;20206;-69
2022/04/29 01:32:55;;;;;;;14.97;6.47;;;;;;;;;;5006678;28;20329;-69
2022/04/29 01:35:20;;;;;;;9.77;6.00;;;;;;;;;;5006886;28;20182;-69
2022/04/29 01:37:45;;;;;;;12.33;6.10;;;;;;;;;;4998455;28;20630;-69
2022/04/29 01:40:11;;;;;;;9.10;5.80;;;;;;;;;;5004217;28;20217;-68
2022/04/29 01:42:37;;;;;;;12.47;6.70;;;;;;;;;;5007757;28;20182;-71
2022/04/29 01:45:03;;;;;;;10.90;6.40;;;;;;;;;;5011028;28;20202;-71
2022/04/29 01:47:28;;;;;;;8.90;6.00;;;;;;;;;;5011465;28;20202;-70
2022/04/29 01:49:53;;;;;;;13.97;6.90;;;;;;;;;;5000884;28;20182;-71
2022/04/29 01:52:18;;;;;;;10.20;6.33;;;;;;;;;;5008477;28;20202;-70
2022/04/29 01:54:44;;;;;;;10.37;6.67;;;;;;;;;;5003063;28;20650;-71
2022/04/29 01:57:09;;;;;;;16.43;7.00;;;;;;;;;;4998603;28;20234;-71
2022/04/29 01:59:35;;;;;;;11.90;6.67;;;;;;;;;;5006503;28;20655;-70
2022/04/29 02:02:00;;;;;;;9.83;6.27;;;;;;;;;;5006164;28;20305;-70
2022/04/29 02:04:26;;;;;;;14.33;7.33;;;;;;;;;;5007525;28;20270;-71
2022/04/29 02:06:51;;;;;;;7.80;6.03;;;;;;;;;;5008938;28;20182;-71
2022/04/29 02:09:16;;;;;;;7.37;6.53;;;;;;;;;;5002156;28;20201;-72
2022/04/29 02:12:04;;;;;;;15.07;7.67;;;;;;;;;;5010445;28;20211;-71
2022/04/29 02:14:29;;;;;;;10.03;6.40;;;;;;;;;;5007630;28;20228;-71
2022/04/29 02:16:56;;;;;;;10.93;6.73;;;;;;;;;;5009905;28;20179;-70
2022/04/29 02:19:22;;;;;;;13.10;6.93;;;;;;;;;;5009821;28;20538;-71
2022/04/29 02:21:47;;;;;;;12.93;6.53;;;;;;;;;;5008442;28;20199;-71
2022/04/29 02:24:13;;;;;;;10.90;6.40;;;;;;;;;;5003843;28;20180;-71
2022/04/29 02:26:38;;;;;;;9.03;5.73;;;;;;;;;;5010573;28;20309;-70
2022/04/29 02:29:03;;;;;;;11.93;6.83;;;;;;;;;;5010393;28;20427;-69
2022/04/29 02:31:28;;;;;;;14.60;7.53;;;;;;;;;;5009418;28;20678;-70
2022/04/29 02:33:53;;;;;;;9.63;6.30;;;;;;;;;;5006019;28;20191;-70
2022/04/29 02:36:19;;;;;;;11.70;7.07;;;;;;;;;;5007813;28;20175;-70
2022/04/29 02:38:44;;;;;;;12.00;6.40;;;;;;;;;;5009305;28;20185;-70
2022/04/29 02:41:10;;;;;;;8.93;6.30;;;;;;;;;;5005093;28;20199;-70
2022/04/29 02:43:35;;;;;;;9.17;6.40;;;;;;;;;;5007149;28;20237;-71
2022/04/29 02:46:00;;;;;;;9.63;6.50;;;;;;;;;;5011189;28;20175;-71
2022/04/29 02:48:25;;;;;;;11.57;6.33;;;;;;;;;;5008002;28;21897;-71
2022/04/29 02:50:50;;;;;;;9.87;6.60;;;;;;;;;;5009433;28;20191;-70
2022/04/29 02:53:16;;;;;;;11.60;6.00;;;;;;;;;;5007628;28;20207;-70
2022/04/29 02:55:41;;;;;;;8.87;6.33;;;;;;;;;;5013315;28;20230;-70
2022/04/29 02:58:06;;;;;;;12.37;6.33;;;;;;;;;;5013507;28;20571;-70
2022/04/29 03:00:31;;;;;;;17.60;7.10;;;;;;;;;;5005585;28;20253;-71
2022/04/29 03:02:57;;;;;;;11.53;6.27;;;;;;;;;;5013883;28;20660;-70
2022/04/29 03:05:22;;;;;;;10.97;7.13;;;;;;;;;;5009716;28;20178;-70
2022/04/29 03:07:47;;;;;;;8.73;6.47;;;;;;;;;;5013754;28;20681;-70
2022/04/29 03:10:12;;;;;;;13.43;6.77;;;;;;;;;;5007971;28;20199;-70
2022/04/29 03:12:37;;;;;;;11.70;6.50;;;;;;;;;;5012848;28;20552;-70
2022/04/29 03:15:18;;;;;;;14.97;6.70;;;;;;;;;;5011482;28;20190;-69
2022/04/29 03:20:28;;;;;;;13.20;5.90;;;;;;;;;;5002461;28;20209;-69
2022/04/29 03:22:53;;;;;;;12.13;7.17;;;;;;;;;;5002693;28;20241;-70
2022/04/29 03:25:18;;;;;;;10.63;5.73;;;;;;;;;;5013168;28;20611;-69
2022/04/29 03:27:44;;;;;;;11.00;6.00;;;;;;;;;;5008026;28;20261;-69
2022/04/29 03:30:09;;;;;;;9.27;6.27;;;;;;;;;;5006244;28;20183;-69
2022/04/29 03:32:34;;;;;;;11.83;6.97;;;;;;;;;;5011408;28;20233;-69
2022/04/29 03:34:59;;;;;;;13.43;6.43;;;;;;;;;;5007368;28;20210;-69
2022/04/29 03:37:25;;;;;;;11.43;7.00;;;;;;;;;;5009646;28;20183;-68
2022/04/29 03:39:50;;;;;;;14.10;6.90;;;;;;;;;;5011277;28;20185;-69
2022/04/29 03:42:15;;;;;;;17.27;6.73;;;;;;;;;;5003308;28;20746;-69
2022/04/29 03:44:40;;;;;;;9.87;6.07;;;;;;;;;;5010177;28;20190;-70
2022/04/29 03:47:05;;;;;;;14.10;7.43;;;;;;;;;;5013038;28;20666;-69
2022/04/29 03:49:37;;;;;;;12.17;6.07;;;;;;;;;;5005469;28;20171;-69
2022/04/29 03:52:02;;;;;;;12.27;6.37;;;;;;;;;;4999475;28;20699;-69
2022/04/29 03:54:27;;;;;;;8.97;6.17;;;;;;;;;;5010174;28;20226;-70
2022/04/29 03:56:52;;;;;;;9.27;6.50;;;;;;;;;;5010813;28;20183;-70
2022/04/29 03:59:18;;;;;;;11.70;6.90;;;;;;;;;;5011816;28;20175;-69
2022/04/29 04:01:43;;;;;;;15.40;7.30;;;;;;;;;;5007809;28;20211;-69
2022/04/29 04:04:08;;;;;;;14.97;6.67;;;;;;;;;;5011170;28;20175;-70
2022/04/29 04:06:52;;;;;;;10.63;5.77;;;;;;;;;;5011615;28;20171;-69
2022/04/29 04:09:18;;;;;;;16.27;6.97;;;;;;;;;;5005641;28;20183;-70
2022/04/29 04:11:44;;;;;;;15.73;7.70;;;;;;;;;;5010177;28;20238;-69
2022/04/29 04:14:09;;;;;;;10.23;6.70;;;;;;;;;;5012461;28;20203;-70
2022/04/29 04:16:35;;;;;;;16.20;7.20;;;;;;;;;;5007328;28;20605;-69
2022/04/29 04:19:01;;;;;;;17.23;6.63;;;;;;;;;;5005440;28;20175;-69
2022/04/29 04:21:26;;;;;;;14.03;7.17;;;;;;;;;;5011535;28;20206;-69
2022/04/29 04:23:53;;;;;;;13.60;6.67;;;;;;;;;;5007919;28;20275;-70
2022/04/29 04:26:18;;;;;;;14.97;6.47;;;;;;;;;;5003307;28;20179;-68
2022/04/29 04:28:43;;;;;;;16.37;7.03;;;;;;;;;;5005310;28;20720;-69
2022/04/29 04:31:08;;;;;;;15.50;7.10;;;;;;;;;;5010141;28;20194;-69
2022/04/29 04:33:33;;;;;;;13.23;6.23;;;;;;;;;;5008848;28;20625;-69
2022/04/29 04:35:59;;;;;;;12.80;6.73;;;;;;;;;;5012499;28;20194;-69
2022/04/29 04:38:26;;;;;;;11.47;6.80;;;;;;;;;;5009069;28;20183;-70
2022/04/29 04:40:51;;;;;;;14.50;7.37;;;;;;;;;;5011556;28;20791;-69
2022/04/29 04:43:17;;;;;;;12.80;6.63;;;;;;;;;;4999512;28;20182;-69
2022/04/29 04:45:42;;;;;;;19.03;6.73;;;;;;;;;;5006437;28;20645;-69
2022/04/29 04:48:07;;;;;;;9.80;6.67;;;;;;;;;;5010951;28;20289;-69
2022/04/29 04:50:32;;;;;;;14.70;6.80;;;;;;;;;;5011916;28;20199;-69
2022/04/29 04:52:57;;;;;;;12.63;6.80;;;;;;;;;;5011387;28;20233;-69
2022/04/29 04:55:23;;;;;;;12.97;6.97;;;;;;;;;;5003894;28;20720;-69
2022/04/29 04:57:48;;;;;;;11.80;7.17;;;;;;;;;;5011294;28;20190;-69
2022/04/29 05:00:13;;;;;;;12.03;7.20;;;;;;;;;;5005938;28;20284;-69
2022/04/29 05:02:40;;;;;;;11.83;6.63;;;;;;;;;;4998687;28;20191;-69
2022/04/29 05:05:05;;;;;;;12.90;6.73;;;;;;;;;;5009487;28;20182;-70
2022/04/29 05:07:30;;;;;;;13.20;7.47;;;;;;;;;;5004650;28;20286;-69
2022/04/29 05:09:55;;;;;;;12.50;6.97;;;;;;;;;;5010526;28;20172;-69
2022/04/29 05:12:21;;;;;;;11.20;7.07;;;;;;;;;;5004887;28;20650;-70
2022/04/29 05:14:47;;;;;;;11.63;7.10;;;;;;;;;;5001981;28;20294;-70
2022/04/29 05:17:12;;;;;;;13.50;6.70;;;;;;;;;;5002804;28;20263;-70
2022/04/29 05:19:38;;;;;;;10.37;7.40;;;;;;;;;;5006774;28;20179;-70
2022/04/29 05:22:03;;;;;;;13.27;5.83;;;;;;;;;;5011715;28;20195;-69
2022/04/29 05:24:28;;;;;;;16.17;7.43;;;;;;;;;;5005792;28;20194;-69
2022/04/29 05:26:53;;;;;;;17.67;8.00;;;;;;;;;;5004711;28;20744;-69
2022/04/29 05:29:19;;;;;;;17.73;8.07;;;;;;;;;;5005498;28;20206;-69
2022/04/29 05:31:44;;;;;;;16.13;6.90;;;;;;;;;;5005287;28;20226;-70
2022/04/29 05:34:09;;;;;;;13.27;7.07;;;;;;;;;;5008222;28;20653;-69
2022/04/29 05:36:34;;;;;;;14.27;7.10;;;;;;;;;;5009626;28;20222;-70
2022/04/29 05:44:28;;;;;;;15.40;7.00;;;;;;;;;;4999642;28;20264;-69
2022/04/29 05:46:53;;;;;;;15.00;7.03;;;;;;;;;;5000478;28;20187;-69
2022/04/29 05:49:18;;;;;;;14.40;6.93;;;;;;;;;;5005794;28;20203;-69
2022/04/29 05:51:43;;;;;;;12.30;7.67;;;;;;;;;;5004517;28;20298;-70
2022/04/29 05:54:09;;;;;;;14.67;7.30;;;;;;;;;;5004680;28;20182;-70
2022/04/29 05:56:34;;;;;;;10.27;5.73;;;;;;;;;;5009712;28;20262;-69
2022/04/29 05:58:59;;;;;;;15.70;6.90;;;;;;;;;;5007678;28;20207;-70
2022/04/29 06:01:24;;;;;;;12.30;6.30;;;;;;;;;;5003711;28;20213;-70
2022/04/29 06:03:50;;;;;;;14.07;6.87;;;;;;;;;;5003618;28;20221;-69
2022/04/29 06:06:15;;;;;;;11.03;6.13;;;;;;;;;;5007730;28;20700;-70
2022/04/29 06:08:40;;;;;;;11.07;6.80;;;;;;;;;;5008748;28;20206;-70
2022/04/29 06:11:05;;;;;;;11.53;6.27;;;;;;;;;;5005704;28;20203;-70
2022/04/29 06:13:31;;;;;;;12.65;6.32;;;;;;;;;;5004652;28;20176;-70
2022/04/29 06:15:56;;;;;;;13.57;6.37;;;;;;;;;;5010615;28;20198;-69
2022/04/29 06:18:21;;;;;;;13.43;6.63;;;;;;;;;;5004555;28;20179;-69
2022/04/29 06:20:46;;;;;;;14.27;6.17;;;;;;;;;;5007751;28;20207;-69
2022/04/29 06:23:11;;;;;;;13.47;6.97;;;;;;;;;;5003200;28;20182;-70
2022/04/29 06:25:36;;;;;;;12.87;6.03;;;;;;;;;;5005205;28;20214;-70
2022/04/29 06:28:02;;;;;;;13.17;6.73;;;;;;;;;;5012901;28;20293;-70
2022/04/29 06:30:27;;;;;;;14.37;6.23;;;;;;;;;;5012647;28;20195;-69
2022/04/29 06:32:53;;;;;;;13.90;6.83;;;;;;;;;;5009707;28;20183;-70
2022/04/29 06:35:19;;;;;;;13.40;6.43;;;;;;;;;;5013540;28;20182;-70
2022/04/29 06:37:44;;;;;;;12.37;6.30;;;;;;;;;;5014064;28;20630;-70
2022/04/29 06:40:09;;;;;;;10.07;5.87;;;;;;;;;;5014628;28;20209;-70
2022/04/29 06:42:47;;;;;;;11.50;7.07;;;;;;;;;;5010638;28;20254;-70
2022/04/29 06:45:13;;;;;;;16.63;7.23;;;;;;;;;;5010316;28;20190;-70
2022/04/29 06:47:38;;;;;;;14.63;6.83;;;;;;;;;;5013721;28;20194;-70
2022/04/29 06:50:04;;;;;;;13.17;6.80;;;;;;;;;;5013784;28;20645;-70
2022/04/29 06:52:29;;;;;;;12.03;6.30;;;;;;;;;;5006036;28;20522;-69
2022/04/29 06:54:54;;;;;;;11.77;6.87;;;;;;;;;;5012244;28;20175;-70
2022/04/29 06:57:20;;;;;;;13.50;6.97;;;;;;;;;;5008922;28;20599;-68
2022/04/29 06:59:45;;;;;;;12.93;6.53;;;;;;;;;;5009019;28;20262;-71
2022/04/29 07:02:10;;;;;;;12.23;6.60;;;;;;;;;;5008030;28;20689;-71
2022/04/29 07:04:35;;;;;;;9.83;5.70;;;;;;;;;;5009267;28;20397;-72
2022/04/29 07:07:00;;;;;;;11.33;6.13;;;;;;;;;;5002340;28;20185;-68
2022/04/29 07:09:26;;;;;;;14.53;6.27;;;;;;;;;;5004373;28;20187;-68
2022/04/29 07:11:51;;;;;;;9.60;6.63;;;;;;;;;;5009928;28;20191;-71
2022/04/29 07:14:16;;;;;;;10.90;5.67;;;;;;;;;;5006009;28;20179;-69
2022/04/29 07:16:41;;;;;;;14.50;7.53;;;;;;;;;;5009850;28;20183;-69
2022/04/29 07:19:06;;;;;;;11.85;5.85;;;;;;;;;;5009981;28;20184;-69
2022/04/29 07:21:32;;;;;;;14.00;5.90;;;;;;;;;;5006364;28;20223;-69
2022/04/29 07:23:59;;;;;;;11.13;5.53;;;;;;;;;;5005606;28;20187;-69
2022/04/29 07:26:24;;;;;;;18.13;6.27;;;;;;;;;;5012543;28;20183;-69
2022/04/29 07:28:50;;;;;;;12.30;5.53;;;;;;;;;;5006510;28;20285;-71
2022/04/29 07:31:15;;;;;;;12.17;5.10;;;;;;;;;;5012498;28;20206;-69
2022/04/29 07:33:40;;;;;;;7.33;5.03;;;;;;;;;;5009639;28;20679;-69
2022/04/29 07:41:45;;;;;;;12.53;5.40;;;;;;;;;;5011349;28;20718;-69
2022/04/29 07:44:13;;;;;;;15.67;5.93;;;;;;;;;;5001703;28;20556;-70
2022/04/29 07:46:39;;;;;;;12.07;4.87;;;;;;;;;;5007604;28;20209;-69
2022/04/29 07:49:05;;;;;;;9.27;5.00;;;;;;;;;;5009286;28;20264;-69
2022/04/29 07:51:31;;;;;;;8.60;5.10;;;;;;;;;;5006368;28;20571;-70
2022/04/29 07:53:56;;;;;;;7.87;5.10;;;;;;;;;;5006548;28;20182;-69
2022/04/29 07:56:21;;;;;;;22.02;6.65;;;;;;;;;;5008159;28;20198;-69
2022/04/29 07:58:46;;;;;;;10.68;5.18;;;;;;;;;;5007555;28;20198;-70
2022/04/29 08:01:11;;;;;;;8.70;5.40;;;;;;;;;;5007890;28;20222;-69
2022/04/29 08:03:37;;;;;;;8.87;4.37;;;;;;;;;;5008820;28;20436;-69
2022/04/29 08:06:03;;;;;;;20.23;6.27;;;;;;;;;;5009735;28;20597;-70
2022/04/29 08:08:28;;;;;;;8.02;5.00;;;;;;;;;;5021804;28;20225;-69
2022/04/29 08:10:53;;;;;;;9.70;4.90;;;;;;;;;;5012750;28;20195;-70
2022/04/29 08:13:18;;;;;;;7.07;4.90;;;;;;;;;;5012322;28;20541;-69
2022/04/29 08:15:45;;;;;;;9.77;5.38;;;;;;;;;;5006002;28;20200;-70
2022/04/29 08:18:12;;;;;;;8.97;4.50;;;;;;;;;;5010704;28;20186;-70
2022/04/29 08:20:37;;;;;;;13.68;6.93;;;;;;;;;;5007297;28;20235;-70
2022/04/29 08:23:02;;;;;;;11.38;4.88;;;;;;;;;;5007439;28;20284;-69
2022/04/29 08:25:28;;;;;;;6.50;4.07;;;;;;;;;;5007163;28;20183;-70
2022/04/29 08:27:53;;;;;;;7.13;3.85;;;;;;;;;;5008057;28;20320;-69
2022/04/29 08:30:18;;;;;;;11.43;4.43;;;;;;;;;;5011300;28;20683;-70
2022/04/29 08:32:44;;;;;;;11.70;4.17;;;;;;;;;;5012892;28;20182;-69
2022/04/29 08:35:10;;;;;;;7.45;4.20;;;;;;;;;;5011918;28;20266;-70
2022/04/29 08:37:39;;;;;;;6.90;4.00;;;;;;;;;;5012018;28;20191;-69
2022/04/29 08:40:05;;;;;;;8.10;4.50;;;;;;;;;;5009951;28;20260;-70
2022/04/29 08:42:36;;;;;;;6.27;3.77;;;;;;;;;;5012556;28;20262;-70
2022/04/29 08:45:01;;;;;;;10.80;4.00;;;;;;;;;;5012517;28;20548;-69
2022/04/29 08:47:26;;;;;;;7.40;4.43;;;;;;;;;;5012287;28;20216;-69
2022/04/29 08:49:52;;;;;;;9.90;4.23;;;;;;;;;;5010777;28;20184;-70
2022/04/29 08:52:17;;;;;;;7.47;4.83;;;;;;;;;;5016580;28;20562;-69
2022/04/29 09:00:12;;;;;;;7.67;4.70;;;;;;;;;;4999000;28;20248;-69
2022/04/29 09:02:40;;;;;;;7.20;4.20;;;;;;;;;;5007440;28;20179;-69
2022/04/29 09:05:07;;;;;;;11.18;4.72;;;;;;;;;;5012380;28;20171;-70
2022/04/29 09:07:51;;;;;;;8.40;3.97;;;;;;;;;;5008778;28;20264;-70
2022/04/29 09:10:16;;;;;;;6.93;4.10;;;;;;;;;;5010682;28;20664;-69
2022/04/29 09:12:42;;;;;;;7.17;3.63;;;;;;;;;;5005632;28;20172;-70
2022/04/29 09:15:10;;;;;;;9.50;4.53;;;;;;;;;;5009776;28;20167;-69
2022/04/29 09:17:38;;;;;;;9.63;4.97;;;;;;;;;;5007167;28;20183;-69
2022/04/29 09:20:04;;;;;;;7.87;3.93;;;;;;;;;;5010297;28;20198;-69
2022/04/29 09:22:31;;;;;;;8.77;4.27;;;;;;;;;;5004158;28;20249;-70
2022/04/29 09:25:00;;;;;;;7.78;4.63;;;;;;;;;;5006217;28;20183;-70
2022/04/29 09:27:25;;;;;;;10.52;4.20;;;;;;;;;;5011080;28;20333;-69
2022/04/29 09:29:56;;;;;;;7.10;4.05;;;;;;;;;;5004790;28;20254;-69
2022/04/29 09:32:22;;;;;;;6.18;3.83;;;;;;;;;;5006561;28;20179;-70
2022/04/29 09:34:53;;;;;;;9.38;4.30;;;;;;;;;;5002501;28;20184;-69
2022/04/29 09:37:19;;;;;;;6.45;4.00;;;;;;;;;;5008773;28;20317;-69
2022/04/29 09:39:50;;;;;;;12.85;4.55;;;;;;;;;;5008065;28;20300;-70
2022/04/29 09:42:16;;;;;;;8.48;3.97;;;;;;;;;;5005380;28;20198;-69
2022/04/29 09:44:42;;;;;;;9.05;4.38;;;;;;;;;;4994910;28;20178;-69
2022/04/29 09:47:11;;;;;;;11.82;5.47;;;;;;;;;;5008653;28;20177;-70
2022/04/29 09:49:36;;;;;;;9.18;4.25;;;;;;;;;;4999895;28;20558;-70
2022/04/29 09:52:02;;;;;;;10.75;4.25;;;;;;;;;;5009389;28;20195;-70
2022/04/29 09:54:29;;;;;;;8.55;4.20;;;;;;;;;;5011226;28;20292;-70
2022/04/29 09:57:10;;;;;;;9.13;4.55;;;;;;;;;;5011027;28;20171;-69
2022/04/29 09:59:35;;;;;;;10.55;5.18;;;;;;;;;;5004910;28;20667;-70
2022/04/29 10:02:01;;;;;;;9.77;4.28;;;;;;;;;;5011661;28;20202;-69
2022/04/29 10:04:29;;;;;;;12.90;5.40;;;;;;;;;;5014314;28;20183;-69
2022/04/29 10:06:54;;;;;;;6.47;4.47;;;;;;;;;;5014717;28;20562;-70
2022/04/29 10:09:21;;;;;;;8.70;4.75;;;;;;;;;;5012850;28;20202;-70
2022/04/29 10:11:46;;;;;;;8.25;4.95;;;;;;;;;;5012202;28;20201;-69
2022/04/29 10:14:14;;;;;;;6.32;4.47;;;;;;;;;;5010790;28;20179;-69
2022/04/29 10:16:39;;;;;;;8.77;4.78;;;;;;;;;;5013513;28;20194;-69
2022/04/29 10:21:50;;;;;;;9.18;4.25;;;;;;;;;;5013210;28;20205;-70
2022/04/29 10:24:15;;;;;;;13.50;5.18;;;;;;;;;;5014829;28;20198;-69
2022/04/29 10:26:40;;;;;;;9.30;5.00;;;;;;;;;;5013827;28;20187;-69
2022/04/29 10:29:06;;;;;;;12.27;5.10;;;;;;;;;;5013688;28;20203;-70
2022/04/29 10:31:31;;;;;;;8.68;4.93;;;;;;;;;;5013345;28;20203;-69
2022/04/29 10:34:16;;;;;;;8.07;5.00;;;;;;;;;;5010686;28;20200;-70
2022/04/29 10:36:45;;;;;;;9.13;4.63;;;;;;;;;;5012376;28;20206;-69
2022/04/29 10:39:16;;;;;;;10.60;4.68;;;;;;;;;;5005285;28;20213;-69
2022/04/29 10:41:56;;;;;;;5.57;4.38;;;;;;;;;;5010494;28;20615;-69
2022/04/29 10:44:21;;;;;;;9.07;5.00;;;;;;;;;;5010196;28;20179;-69
2022/04/29 10:46:48;;;;;;;7.72;4.78;;;;;;;;;;5009749;28;20274;-70
2022/04/29 10:49:19;;;;;;;7.57;5.32;;;;;;;;;;5010016;28;20257;-69
2022/04/29 10:51:45;;;;;;;8.13;4.80;;;;;;;;;;5009829;28;20199;-69
2022/04/29 10:54:11;;;;;;;7.05;4.75;;;;;;;;;;5010122;28;20549;-70
2022/04/29 10:56:36;;;;;;;12.55;5.18;;;;;;;;;;5013990;28;20175;-69
2022/04/29 10:59:01;;;;;;;7.30;4.93;;;;;;;;;;5012945;28;20186;-69
2022/04/29 11:01:33;;;;;;;9.85;5.05;;;;;;;;;;5012905;28;20219;-70
2022/04/29 11:03:58;;;;;;;10.02;5.55;;;;;;;;;;5012612;28;20735;-70
2022/04/29 11:06:34;;;;;;;7.68;4.80;;;;;;;;;;5012689;28;20175;-71
2022/04/29 11:08:59;;;;;;;10.48;4.72;;;;;;;;;;5010314;28;20210;-70
2022/04/29 11:11:42;;;;;;;8.90;5.45;;;;;;;;;;5012014;28;20282;-70
2022/04/29 11:14:07;;;;;;;7.90;5.30;;;;;;;;;;5008527;28;20552;-71
2022/04/29 11:16:47;;;;;;;9.48;4.97;;;;;;;;;;5019975;28;20179;-70
2022/04/29 11:19:22;;;;;;;7.40;4.95;;;;;;;;;;5009209;28;20182;-70
2022/04/29 11:24:49;;;;;;;7.55;5.78;;;;;;;;;;5013643;28;20258;-71
2022/04/29 11:27:23;;;;;;;8.07;4.88;;;;;;;;;;5012151;28;20182;-71
2022/04/29 11:29:48;;;;;;;5.63;4.65;;;;;;;;;;5011418;28;20548;-68
2022/04/29 11:32:13;;;;;;;12.10;5.10;;;;;;;;;;5011489;28;20201;-70
2022/04/29 11:34:51;;;;;;;8.43;5.50;;;;;;;;;;5012870;28;20411;-70
2022/04/29 11:37:30;;;;;;;5.40;4.55;;;;;;;;;;5012772;28;20416;-68
2022/04/29 11:39:55;;;;;;;6.20;4.53;;;;;;;;;;5019225;28;20179;-70
2022/04/29 11:42:20;;;;;;;11.27;6.15;;;;;;;;;;5011606;28;20222;-68
2022/04/29 11:44:46;;;;;;;10.65;4.93;;;;;;;;;;5011844;28;20229;-70
2022/04/29 11:47:12;;;;;;;7.13;4.22;;;;;;;;;;5010703;28;20185;-68
2022/04/29 11:49:38;;;;;;;8.82;4.40;;;;;;;;;;5011106;28;20183;-70
2022/04/29 11:52:21;;;;;;;6.90;4.22;;;;;;;;;;5009524;28;20199;-69
2022/04/29 11:55:18;;;;;;;7.78;4.63;;;;;;;;;;5010956;28;20171;-68
2022/04/29 11:57:49;;;;;;;6.00;3.72;;;;;;;;;;5001122;28;20249;-70
2022/04/29 12:00:21;;;;;;;6.35;4.20;;;;;;;;;;5010534;28;20700;-70
2022/04/29 12:02:47;;;;;;;6.38;4.40;;;;;;;;;;5004120;28;20187;-68
2022/04/29 12:05:12;;;;;;;6.22;4.47;;;;;;;;;;5010748;28;20618;-70
2022/04/29 12:07:41;;;;;;;8.52;4.00;;;;;;;;;;5008579;28;20214;-70
2022/04/29 12:10:16;;;;;;;7.20;3.85;;;;;;;;;;5009221;28;20576;-70
2022/04/29 12:12:42;;;;;;;6.70;4.78;;;;;;;;;;5009822;28;20573;-70
2022/04/29 12:15:09;;;;;;;6.90;5.03;;;;;;;;;;5005742;28;20245;-70
2022/04/29 12:17:36;;;;;;;6.90;4.30;;;;;;;;;;5010632;28;20202;-68
2022/04/29 12:20:01;;;;;;;6.55;4.65;;;;;;;;;;5007334;28;20187;-67
2022/04/29 12:22:31;;;;;;;8.45;4.85;;;;;;;;;;5012624;28;20741;-70
2022/04/29 12:24:56;;;;;;;6.05;4.68;;;;;;;;;;5009066;28;20245;-70
2022/04/29 12:27:29;;;;;;;5.93;5.07;;;;;;;;;;5010476;28;20191;-70
2022/04/29 12:35:29;;;;;;;5.32;4.22;;;;;;;;;;5010562;28;20947;-68
2022/04/29 12:37:54;;;;;;;6.32;5.22;;;;;;;;;;5013175;28;20265;-70
2022/04/29 12:40:26;;;;;;;7.97;5.35;;;;;;;;;;5013528;28;20198;-71
2022/04/29 12:42:51;;;;;;;7.88;5.20;;;;;;;;;;5009902;28;20191;-70
2022/04/29 12:45:21;;;;;;;7.13;5.37;;;;;;;;;;5011768;28;20237;-68
2022/04/29 12:47:53;;;;;;;9.15;5.32;;;;;;;;;;5005567;28;20456;-69
2022/04/29 12:50:31;;;;;;;9.93;5.50;;;;;;;;;;5002204;28;20205;-70
2022/04/29 12:53:09;;;;;;;9.07;6.03;;;;;;;;;;5003954;28;20191;-68
2022/04/29 12:55:36;;;;;;;8.57;6.47;;;;;;;;;;5000146;28;20187;-69
2022/04/29 12:58:02;;;;;;;8.15;5.60;;;;;;;;;;5010473;28;20182;-69
2022/04/29 13:00:27;;;;;;;6.63;5.78;;;;;;;;;;5009511;28;20211;-68
2022/04/29 13:03:03;;;;;;;7.80;5.97;;;;;;;;;;5009393;28;20179;-68
2022/04/29 13:05:29;;;;;;;7.78;6.10;;;;;;;;;;5000739;28;20187;-68
2022/04/29 13:07:54;;;;;;;8.27;6.93;;;;;;;;;;5004426;28;20215;-70
2022/04/29 13:10:19;;;;;;;9.75;7.18;;;;;;;;;;5002732;28;20202;-70
2022/04/29 13:12:45;;;;;;;8.25;6.55;;;;;;;;;;5008981;28;20195;-67
2022/04/29 13:15:11;;;;;;;10.30;6.07;;;;;;;;;;5005230;28;20641;-70
2022/04/29 13:17:37;;;;;;;9.18;6.25;;;;;;;;;;5001457;28;20167;-68
2022/04/29 13:20:02;;;;;;;11.02;6.45;;;;;;;;;;5011114;28;20183;-68
2022/04/29 13:22:27;;;;;;;6.57;5.85;;;;;;;;;;5008379;28;20179;-69
2022/04/29 13:24:52;;;;;;;9.48;5.90;;;;;;;;;;5008316;28;20175;-68
2022/04/29 13:27:19;;;;;;;8.10;6.25;;;;;;;;;;5011175;28;20189;-69
2022/04/29 13:29:44;;;;;;;7.60;6.30;;;;;;;;;;5006653;28;20680;-68
2022/04/29 13:32:09;;;;;;;9.23;5.70;;;;;;;;;;5005324;28;20225;-69
2022/04/29 13:34:34;;;;;;;9.63;6.10;;;;;;;;;;5003941;28;20421;-69
2022/04/29 13:37:00;;;;;;;7.20;6.00;;;;;;;;;;5009346;28;20435;-69
2022/04/29 13:39:25;;;;;;;10.23;6.18;;;;;;;;;;5009314;28;20478;-70
2022/04/29 13:41:50;;;;;;;7.20;5.67;;;;;;;;;;5015658;28;20218;-68
2022/04/29 13:44:15;;;;;;;5.93;5.43;;;;;;;;;;5007842;28;20424;-69
2022/04/29 13:46:40;;;;;;;6.57;5.30;;;;;;;;;;5011186;28;20190;-68
2022/04/29 13:49:06;;;;;;;6.63;5.85;;;;;;;;;;5007504;28;20456;-70
2022/04/29 13:51:31;;;;;;;7.80;6.57;;;;;;;;;;5008801;28;20630;-69
2022/04/29 13:53:56;;;;;;;8.32;5.40;;;;;;;;;;5008994;28;21326;-67
2022/04/29 13:56:21;;;;;;;7.20;5.28;;;;;;;;;;5005432;28;20206;-68
2022/04/29 13:58:46;;;;;;;6.90;5.35;;;;;;;;;;5006343;28;20290;-69
2022/04/29 14:01:12;;;;;;;8.05;5.72;;;;;;;;;;5008508;28;20241;-69
2022/04/29 14:03:37;;;;;;;10.02;5.40;;;;;;;;;;5006150;28;20652;-68
2022/04/29 14:06:03;;;;;;;8.23;5.85;;;;;;;;;;5006994;28;20187;-69
2022/04/29 14:08:28;;;;;;;5.95;5.18;;;;;;;;;;5002636;28;20552;-70
2022/04/29 14:10:54;;;;;;;7.63;4.70;;;;;;;;;;5007472;28;20719;-69
2022/04/29 14:13:20;;;;;;;6.95;5.28;;;;;;;;;;5003082;28;20861;-68
2022/04/29 14:15:45;;;;;;;9.73;5.80;;;;;;;;;;5002209;28;20176;-69
2022/04/29 14:18:11;;;;;;;8.73;5.43;;;;;;;;;;5008985;28;20183;-69
2022/04/29 14:20:36;;;;;;;9.52;5.50;;;;;;;;;;5005727;28;20206;-68
2022/04/29 14:23:01;;;;;;;7.88;5.20;;;;;;;;;;5006635;28;20621;-69
2022/04/29 14:25:27;;;;;;;9.27;5.63;;;;;;;;;;5008702;28;20721;-68
2022/04/29 14:27:53;;;;;;;9.65;6.15;;;;;;;;;;5006783;28;20211;-69
2022/04/29 14:30:18;;;;;;;5.53;5.03;;;;;;;;;;5008754;28;20202;-69
2022/04/29 14:32:44;;;;;;;11.60;6.05;;;;;;;;;;5009670;28;20233;-69
2022/04/29 14:35:10;;;;;;;7.65;5.47;;;;;;;;;;5010123;28;20213;-69
2022/04/29 14:37:35;;;;;;;7.18;5.90;;;;;;;;;;5007472;28;20191;-69
2022/04/29 14:40:01;;;;;;;6.82;5.13;;;;;;;;;;5008213;28;20233;-69
2022/04/29 14:42:26;;;;;;;8.40;6.40;;;;;;;;;;5008955;28;20175;-69
2022/04/29 14:44:51;;;;;;;4.95;4.50;;;;;;;;;;5009190;28;20265;-69
2022/04/29 14:47:17;;;;;;;9.57;5.57;;;;;;;;;;5010915;28;20175;-69
2022/04/29 14:49:42;;;;;;;5.78;5.03;;;;;;;;;;5011271;28;20179;-68
2022/04/29 14:52:08;;;;;;;10.25;5.90;;;;;;;;;;5011567;28;20696;-69
2022/04/29 14:54:33;;;;;;;8.10;5.07;;;;;;;;;;5013604;28;20573;-69
2022/04/29 14:56:59;;;;;;;6.70;5.57;;;;;;;;;;5010597;28;20187;-68
2022/04/29 14:59:24;;;;;;;9.67;5.93;;;;;;;;;;5010130;28;20225;-69
2022/04/29 15:01:51;;;;;;;11.77;6.03;;;;;;;;;;5019904;28;20861;-69